Time;durP1;ratioP1;P1;durP2;ratioP2;P2;SDS_P1;SDS_P2;PMS_P1;PMS_P2;Temp;Humidity;BMP_temperature;BMP_pressure;BME280_temperature;BME280_humidity;BME280_pressure;Samples;Min_cycle;Max_cycle;Signal;HPM_P1;HPM_P2
2022/12/03 00:00:46;;;;;;;8.43;7.27;;;;;;;;;;5049667;28;20207;-72
2022/12/03 00:03:13;;;;;;;8.33;7.27;;;;;;;;;;5050302;28;20202;-71
2022/12/03 00:05:40;;;;;;;8.90;6.97;;;;;;;;;;5049835;28;20207;-70
2022/12/03 00:08:07;;;;;;;8.77;7.20;;;;;;;;;;5043873;28;20205;-72
2022/12/03 00:10:34;;;;;;;8.10;6.70;;;;;;;;;;5050764;28;20211;-72
2022/12/03 00:13:02;;;;;;;8.23;6.97;;;;;;;;;;5050118;28;20215;-72
2022/12/03 00:15:30;;;;;;;7.53;6.53;;;;;;;;;;5048967;28;20211;-74
2022/12/03 00:17:57;;;;;;;9.17;7.43;;;;;;;;;;5050273;28;20357;-71
2022/12/03 00:20:25;;;;;;;7.93;6.87;;;;;;;;;;5050150;28;20219;-71
2022/12/03 00:22:52;;;;;;;8.37;6.50;;;;;;;;;;5050224;28;20227;-70
2022/12/03 00:25:19;;;;;;;8.87;6.87;;;;;;;;;;5050376;28;20199;-72
2022/12/03 00:27:46;;;;;;;11.57;7.53;;;;;;;;;;5050122;28;20227;-72
2022/12/03 00:30:14;;;;;;;9.20;7.13;;;;;;;;;;5042025;28;20206;-73
2022/12/03 00:32:42;;;;;;;9.20;6.93;;;;;;;;;;5048488;28;20222;-73
2022/12/03 00:35:10;;;;;;;8.10;6.90;;;;;;;;;;5047924;28;20206;-72
2022/12/03 00:37:37;;;;;;;8.73;7.10;;;;;;;;;;5049548;28;20223;-71
2022/12/03 00:40:04;;;;;;;7.63;6.83;;;;;;;;;;5049032;28;20206;-72
2022/12/03 00:42:31;;;;;;;8.30;7.00;;;;;;;;;;5049843;28;20207;-72
2022/12/03 00:44:58;;;;;;;7.90;6.73;;;;;;;;;;5047353;28;20294;-71
2022/12/03 00:47:26;;;;;;;6.83;5.73;;;;;;;;;;5044922;28;20211;-70
2022/12/03 00:49:54;;;;;;;7.73;6.37;;;;;;;;;;5049637;28;20221;-72
2022/12/03 00:52:21;;;;;;;7.33;6.00;;;;;;;;;;5052944;28;20220;-74
2022/12/03 00:54:48;;;;;;;7.33;6.20;;;;;;;;;;5052679;28;20211;-73
2022/12/03 00:57:15;;;;;;;6.87;5.93;;;;;;;;;;5054215;28;20207;-74
2022/12/03 00:59:42;;;;;;;6.50;5.80;;;;;;;;;;5053694;28;20203;-72
2022/12/03 01:02:10;;;;;;;6.73;6.03;;;;;;;;;;5053909;28;20198;-71
2022/12/03 01:04:37;;;;;;;7.00;6.30;;;;;;;;;;5053425;28;20314;-71
2022/12/03 01:07:05;;;;;;;7.73;6.43;;;;;;;;;;5051826;28;20199;-72
2022/12/03 01:09:33;;;;;;;6.73;6.07;;;;;;;;;;5051073;28;20206;-71
2022/12/03 01:12:00;;;;;;;5.90;5.30;;;;;;;;;;5051192;28;20227;-71
2022/12/03 01:14:27;;;;;;;5.77;5.17;;;;;;;;;;5053561;28;20223;-72
2022/12/03 01:16:54;;;;;;;6.73;5.83;;;;;;;;;;5053542;28;20218;-72
2022/12/03 01:19:21;;;;;;;5.93;5.33;;;;;;;;;;5053269;28;20199;-72
2022/12/03 01:21:50;;;;;;;6.07;5.47;;;;;;;;;;5052045;28;20203;-72
2022/12/03 01:24:19;;;;;;;6.20;5.60;;;;;;;;;;5053826;28;20203;-71
2022/12/03 01:26:46;;;;;;;6.07;5.40;;;;;;;;;;5052753;28;20230;-71
2022/12/03 01:29:14;;;;;;;6.43;5.77;;;;;;;;;;5053590;28;20352;-71
2022/12/03 01:34:25;;;;;;;5.30;4.80;;;;;;;;;;5044374;28;20207;-72
2022/12/03 01:36:52;;;;;;;6.20;5.53;;;;;;;;;;5053305;28;20199;-71
2022/12/03 01:39:21;;;;;;;5.50;4.83;;;;;;;;;;5051892;28;20204;-71
2022/12/03 01:41:49;;;;;;;6.20;5.40;;;;;;;;;;5053237;28;20213;-70
2022/12/03 01:44:17;;;;;;;5.87;5.33;;;;;;;;;;5051573;28;20200;-70
2022/12/03 01:46:45;;;;;;;6.03;5.43;;;;;;;;;;5049519;28;20214;-73
2022/12/03 01:49:15;;;;;;;6.00;5.40;;;;;;;;;;5048919;28;20207;-72
2022/12/03 01:51:42;;;;;;;5.97;5.37;;;;;;;;;;5050887;28;20203;-72
2022/12/03 01:54:14;;;;;;;6.33;5.73;;;;;;;;;;5051306;28;20263;-73
2022/12/03 01:56:43;;;;;;;6.13;5.53;;;;;;;;;;5052708;28;20210;-73
2022/12/03 01:59:14;;;;;;;5.97;5.37;;;;;;;;;;5051413;28;20205;-72
2022/12/03 02:01:41;;;;;;;5.93;5.33;;;;;;;;;;5053675;28;20199;-71
2022/12/03 02:04:10;;;;;;;6.17;5.53;;;;;;;;;;5050077;28;20229;-74
2022/12/03 02:06:37;;;;;;;6.77;6.07;;;;;;;;;;5053569;28;20233;-74
2022/12/03 02:09:07;;;;;;;7.23;5.50;;;;;;;;;;5049601;28;20203;-74
2022/12/03 02:11:36;;;;;;;6.93;6.10;;;;;;;;;;5052427;28;20238;-72
2022/12/03 02:14:06;;;;;;;6.37;5.20;;;;;;;;;;5051210;28;20219;-73
2022/12/03 02:16:35;;;;;;;6.73;6.00;;;;;;;;;;5051172;28;20455;-74
2022/12/03 02:19:02;;;;;;;7.43;6.17;;;;;;;;;;5052206;28;20203;-72
2022/12/03 02:21:34;;;;;;;7.47;6.03;;;;;;;;;;5051838;28;20203;-71
2022/12/03 02:24:03;;;;;;;5.97;5.37;;;;;;;;;;5051945;28;20201;-71
2022/12/03 02:26:32;;;;;;;6.90;5.30;;;;;;;;;;5052208;28;20211;-72
2022/12/03 02:29:01;;;;;;;6.53;5.77;;;;;;;;;;5051223;28;20215;-73
2022/12/03 02:31:28;;;;;;;6.50;5.73;;;;;;;;;;5050807;28;20207;-72
2022/12/03 02:33:55;;;;;;;5.20;4.70;;;;;;;;;;5048219;28;20309;-71
2022/12/03 02:36:22;;;;;;;7.10;6.37;;;;;;;;;;5048901;28;20207;-73
2022/12/03 02:38:50;;;;;;;7.33;6.20;;;;;;;;;;5049489;28;20206;-72
2022/12/03 02:44:02;;;;;;;7.57;5.90;;;;;;;;;;5048999;28;20214;-73
2022/12/03 02:46:29;;;;;;;6.90;6.17;;;;;;;;;;5048205;28;20206;-74
2022/12/03 02:48:56;;;;;;;6.93;6.23;;;;;;;;;;5046725;28;20207;-71
2022/12/03 02:51:24;;;;;;;7.73;6.47;;;;;;;;;;5051290;28;20210;-72
2022/12/03 02:53:52;;;;;;;7.90;6.57;;;;;;;;;;5047595;28;20224;-72
2022/12/03 02:56:21;;;;;;;6.90;5.97;;;;;;;;;;5048898;28;20203;-72
2022/12/03 02:58:50;;;;;;;7.40;6.13;;;;;;;;;;5047103;28;20211;-72
2022/12/03 03:01:18;;;;;;;6.50;5.80;;;;;;;;;;5047086;28;20200;-72
2022/12/03 03:03:46;;;;;;;7.40;6.47;;;;;;;;;;5046101;28;20207;-71
2022/12/03 03:06:13;;;;;;;7.40;6.60;;;;;;;;;;5048598;28;20206;-72
2022/12/03 03:08:41;;;;;;;8.40;7.03;;;;;;;;;;5048265;28;20203;-73
2022/12/03 03:11:08;;;;;;;7.93;6.17;;;;;;;;;;5050071;28;20203;-72
2022/12/03 03:13:35;;;;;;;8.03;6.23;;;;;;;;;;5050152;28;20305;-71
2022/12/03 03:16:03;;;;;;;7.70;6.20;;;;;;;;;;5044553;28;20207;-71
2022/12/03 03:18:31;;;;;;;7.13;6.27;;;;;;;;;;5049271;28;20211;-71
2022/12/03 03:20:59;;;;;;;7.30;6.20;;;;;;;;;;5046305;28;20206;-72
2022/12/03 03:23:26;;;;;;;7.03;6.13;;;;;;;;;;5049509;28;20203;-71
2022/12/03 03:25:56;;;;;;;7.23;6.40;;;;;;;;;;5046183;28;20213;-72
2022/12/03 03:28:24;;;;;;;7.13;6.10;;;;;;;;;;5046274;28;20242;-71
2022/12/03 03:30:51;;;;;;;6.80;6.10;;;;;;;;;;5045638;28;20199;-71
2022/12/03 03:33:18;;;;;;;8.33;6.90;;;;;;;;;;5045184;28;20223;-72
2022/12/03 03:35:49;;;;;;;7.47;6.67;;;;;;;;;;5046952;28;20199;-74
2022/12/03 03:38:16;;;;;;;7.50;6.60;;;;;;;;;;5049073;28;20200;-74
2022/12/03 03:40:44;;;;;;;7.30;6.50;;;;;;;;;;5046619;28;20203;-72
2022/12/03 03:43:11;;;;;;;7.63;6.40;;;;;;;;;;5046033;28;20199;-72
2022/12/03 03:45:38;;;;;;;7.07;5.90;;;;;;;;;;5045291;28;20203;-74
2022/12/03 03:48:05;;;;;;;7.40;6.30;;;;;;;;;;5048266;28;20196;-75
2022/12/03 03:50:33;;;;;;;7.97;6.80;;;;;;;;;;5046217;28;20282;-71
2022/12/03 03:53:02;;;;;;;7.33;6.57;;;;;;;;;;5046291;28;20318;-71
2022/12/03 03:55:29;;;;;;;8.37;6.67;;;;;;;;;;5047175;28;20206;-71
2022/12/03 03:57:56;;;;;;;7.90;6.77;;;;;;;;;;5045397;28;20208;-71
2022/12/03 04:00:23;;;;;;;7.87;6.90;;;;;;;;;;5046112;28;20206;-71
2022/12/03 04:02:51;;;;;;;8.00;6.70;;;;;;;;;;5047530;28;20200;-73
2022/12/03 04:05:19;;;;;;;8.40;7.17;;;;;;;;;;5047196;28;20204;-73
2022/12/03 04:07:46;;;;;;;8.70;7.27;;;;;;;;;;5043740;28;20200;-74
2022/12/03 04:12:59;;;;;;;8.60;6.93;;;;;;;;;;5045865;28;20246;-73
2022/12/03 04:15:26;;;;;;;7.93;7.07;;;;;;;;;;5044646;28;20209;-73
2022/12/03 04:20:35;;;;;;;9.20;7.40;;;;;;;;;;5046376;28;20202;-71
2022/12/03 04:23:01;;;;;;;10.20;7.73;;;;;;;;;;5047209;28;20192;-72
2022/12/03 04:30:59;;;;;;;8.03;6.87;;;;;;;;;;5044753;28;20261;-72
2022/12/03 04:36:11;;;;;;;9.07;7.50;;;;;;;;;;5046211;28;20222;-72
2022/12/03 04:38:38;;;;;;;8.70;7.13;;;;;;;;;;5048636;28;20204;-72
2022/12/03 04:41:07;;;;;;;9.33;7.70;;;;;;;;;;5047016;28;20196;-72
2022/12/03 04:44:31;;;;;;;9.17;7.20;;;;;;;;;;5044544;28;20208;-72
2022/12/03 04:46:22;;;;;;;8.53;6.70;;;;;;;;;;5047212;28;20207;-72
2022/12/03 04:48:49;;;;;;;9.63;7.93;;;;;;;;;;5046961;28;20213;-72
2022/12/03 04:51:16;;;;;;;9.47;7.37;;;;;;;;;;5048458;28;20218;-73
2022/12/03 04:53:43;;;;;;;9.47;7.50;;;;;;;;;;5044785;28;20224;-73
2022/12/03 04:56:12;;;;;;;9.00;7.70;;;;;;;;;;5051043;28;20195;-73
2022/12/03 04:58:39;;;;;;;9.67;7.57;;;;;;;;;;5049952;28;20214;-72
2022/12/03 05:01:06;;;;;;;8.83;7.47;;;;;;;;;;5049959;28;20207;-71
2022/12/03 05:03:33;;;;;;;9.93;7.80;;;;;;;;;;5051222;28;20195;-70
2022/12/03 05:06:00;;;;;;;12.00;8.43;;;;;;;;;;5050235;28;20195;-71
2022/12/03 05:08:27;;;;;;;10.77;8.13;;;;;;;;;;5047706;28;20475;-72
2022/12/03 05:10:54;;;;;;;11.50;7.90;;;;;;;;;;5050576;28;20207;-71
2022/12/03 05:13:23;;;;;;;9.90;7.83;;;;;;;;;;5049301;28;20230;-72
2022/12/03 05:15:50;;;;;;;10.97;8.43;;;;;;;;;;5047687;28;20195;-71
2022/12/03 05:18:17;;;;;;;11.57;8.83;;;;;;;;;;5048964;28;20222;-71
2022/12/03 05:20:43;;;;;;;10.67;7.90;;;;;;;;;;5045675;28;20199;-70
2022/12/03 05:23:11;;;;;;;12.20;9.27;;;;;;;;;;5046033;28;20195;-72
2022/12/03 05:25:38;;;;;;;12.80;9.27;;;;;;;;;;5047515;28;20203;-73
2022/12/03 05:28:06;;;;;;;11.63;8.23;;;;;;;;;;5045472;28;20239;-72
2022/12/03 05:30:34;;;;;;;11.67;8.63;;;;;;;;;;5046172;28;20214;-73
2022/12/03 05:33:01;;;;;;;10.73;8.53;;;;;;;;;;5046130;28;20195;-73
2022/12/03 05:35:29;;;;;;;11.07;8.73;;;;;;;;;;5044403;28;20208;-71
2022/12/03 05:37:56;;;;;;;13.90;8.93;;;;;;;;;;5046985;28;20201;-72
2022/12/03 05:40:23;;;;;;;11.53;8.77;;;;;;;;;;5049857;28;20216;-72
2022/12/03 05:43:00;;;;;;;13.13;10.27;;;;;;;;;;5050988;28;20207;-71
2022/12/03 05:45:28;;;;;;;11.50;8.83;;;;;;;;;;5050330;28;20214;-71
2022/12/03 05:47:57;;;;;;;13.53;9.97;;;;;;;;;;5050912;28;20203;-72
2022/12/03 05:50:25;;;;;;;13.23;9.90;;;;;;;;;;5048412;28;20208;-71
2022/12/03 05:52:53;;;;;;;12.13;9.20;;;;;;;;;;5047333;28;20208;-71
2022/12/03 05:55:20;;;;;;;10.93;8.60;;;;;;;;;;5046218;28;20192;-71
2022/12/03 05:57:47;;;;;;;13.97;10.50;;;;;;;;;;5053009;28;20211;-72
2022/12/03 06:00:16;;;;;;;12.63;9.40;;;;;;;;;;5050136;28;20202;-71
2022/12/03 06:02:43;;;;;;;14.43;10.63;;;;;;;;;;5052273;28;20203;-71
2022/12/03 06:05:12;;;;;;;13.80;9.87;;;;;;;;;;5051843;28;20200;-69
2022/12/03 06:07:39;;;;;;;15.60;11.27;;;;;;;;;;5051331;28;20207;-72
2022/12/03 06:10:08;;;;;;;14.17;10.50;;;;;;;;;;5052845;28;20203;-71
2022/12/03 06:12:35;;;;;;;16.20;11.57;;;;;;;;;;5050060;28;20203;-71
2022/12/03 06:15:02;;;;;;;14.03;10.33;;;;;;;;;;5047083;28;20227;-72
2022/12/03 06:17:29;;;;;;;14.43;10.67;;;;;;;;;;5049815;28;20214;-71
2022/12/03 06:19:56;;;;;;;14.33;10.70;;;;;;;;;;5047016;28;20195;-72
2022/12/03 06:22:25;;;;;;;15.40;10.37;;;;;;;;;;5050558;28;20207;-71
2022/12/03 06:24:53;;;;;;;15.20;10.93;;;;;;;;;;5046454;28;20219;-69
2022/12/03 06:27:20;;;;;;;13.93;9.80;;;;;;;;;;5045646;28;20244;-70
2022/12/03 06:29:47;;;;;;;14.07;10.90;;;;;;;;;;5051600;28;20211;-70
2022/12/03 06:32:14;;;;;;;14.07;10.20;;;;;;;;;;5049884;28;20206;-72
2022/12/03 06:34:42;;;;;;;16.90;11.20;;;;;;;;;;5050627;28;20242;-72
2022/12/03 06:37:09;;;;;;;16.30;11.53;;;;;;;;;;5049312;28;20218;-71
2022/12/03 06:39:37;;;;;;;16.40;11.63;;;;;;;;;;5047150;28;20199;-71
2022/12/03 06:42:05;;;;;;;17.17;11.33;;;;;;;;;;5050099;28;20200;-71
2022/12/03 06:44:32;;;;;;;16.90;11.47;;;;;;;;;;5047774;28;20203;-71
2022/12/03 06:46:59;;;;;;;17.30;11.67;;;;;;;;;;5047210;28;20211;-72
2022/12/03 06:49:26;;;;;;;17.67;12.07;;;;;;;;;;5048303;28;20206;-72
2022/12/03 06:51:53;;;;;;;17.27;11.97;;;;;;;;;;5047334;28;20195;-72
2022/12/03 06:54:20;;;;;;;18.30;11.20;;;;;;;;;;5044071;28;20220;-72
2022/12/03 06:56:49;;;;;;;16.00;11.67;;;;;;;;;;5049850;28;20206;-70
2022/12/03 06:59:16;;;;;;;18.57;12.00;;;;;;;;;;5051525;28;20200;-71
2022/12/03 07:01:43;;;;;;;18.03;12.13;;;;;;;;;;5049393;28;20207;-70
2022/12/03 07:04:10;;;;;;;15.87;11.57;;;;;;;;;;5051929;28;20214;-71
2022/12/03 07:06:37;;;;;;;19.50;12.90;;;;;;;;;;5050650;28;20207;-72
2022/12/03 07:09:04;;;;;;;20.23;12.10;;;;;;;;;;5050514;28;20203;-72
2022/12/03 07:11:31;;;;;;;18.73;12.73;;;;;;;;;;5047875;28;20218;-72
2022/12/03 07:14:01;;;;;;;19.23;12.90;;;;;;;;;;5051164;28;20227;-70
2022/12/03 07:16:28;;;;;;;19.10;12.30;;;;;;;;;;5050710;28;20213;-72
2022/12/03 07:18:56;;;;;;;17.93;12.43;;;;;;;;;;5048320;28;20203;-71
2022/12/03 07:21:23;;;;;;;19.97;14.07;;;;;;;;;;5049675;28;20203;-71
2022/12/03 07:23:50;;;;;;;20.13;12.93;;;;;;;;;;5050181;28;20204;-71
2022/12/03 07:26:18;;;;;;;18.50;12.57;;;;;;;;;;5049486;28;20210;-71
2022/12/03 07:28:45;;;;;;;18.70;12.67;;;;;;;;;;5047226;28;20270;-72
2022/12/03 07:31:14;;;;;;;22.27;14.60;;;;;;;;;;5051416;28;20203;-71
2022/12/03 07:33:41;;;;;;;19.37;12.63;;;;;;;;;;5048526;28;20208;-72
2022/12/03 07:36:09;;;;;;;18.83;13.03;;;;;;;;;;5052171;28;20203;-71
2022/12/03 07:38:36;;;;;;;18.77;12.77;;;;;;;;;;5047627;28;20203;-70
2022/12/03 07:41:03;;;;;;;21.43;13.60;;;;;;;;;;5051800;28;20226;-71
2022/12/03 07:43:30;;;;;;;20.43;12.83;;;;;;;;;;5052104;28;20203;-72
2022/12/03 07:45:57;;;;;;;18.77;12.40;;;;;;;;;;5052729;28;20234;-72
2022/12/03 07:48:25;;;;;;;19.37;13.80;;;;;;;;;;5044477;28;20215;-72
2022/12/03 07:50:53;;;;;;;19.33;13.07;;;;;;;;;;5044726;28;20213;-70
2022/12/03 07:53:20;;;;;;;16.50;11.30;;;;;;;;;;5047019;28;20204;-71
2022/12/03 07:55:47;;;;;;;20.10;12.93;;;;;;;;;;5044987;28;20211;-72
2022/12/03 07:58:14;;;;;;;18.27;12.07;;;;;;;;;;5047638;28;20202;-72
2022/12/03 08:00:42;;;;;;;18.93;12.73;;;;;;;;;;5048717;28;20211;-72
2022/12/03 08:03:09;;;;;;;18.93;12.80;;;;;;;;;;5047043;28;20210;-71
2022/12/03 08:05:37;;;;;;;19.40;12.67;;;;;;;;;;5044599;28;20213;-71
2022/12/03 08:08:04;;;;;;;16.47;12.20;;;;;;;;;;5046866;28;20218;-71
2022/12/03 08:10:31;;;;;;;18.40;12.03;;;;;;;;;;5049943;28;20505;-71
2022/12/03 08:13:00;;;;;;;18.63;12.33;;;;;;;;;;5047346;28;20204;-71
2022/12/03 08:15:28;;;;;;;16.87;11.53;;;;;;;;;;5041378;28;20233;-72
2022/12/03 08:17:57;;;;;;;15.63;11.23;;;;;;;;;;5049912;28;20212;-70
2022/12/03 08:20:25;;;;;;;14.67;10.77;;;;;;;;;;5046706;28;20203;-72
2022/12/03 08:22:54;;;;;;;14.47;10.00;;;;;;;;;;5044152;28;20204;-72
2022/12/03 08:25:23;;;;;;;16.17;11.87;;;;;;;;;;5042465;28;20198;-73
2022/12/03 08:27:50;;;;;;;15.87;11.00;;;;;;;;;;5039939;28;20243;-71
2022/12/03 08:30:18;;;;;;;18.97;11.97;;;;;;;;;;5047445;28;20199;-71
2022/12/03 08:32:45;;;;;;;16.30;11.10;;;;;;;;;;5044673;28;20704;-72
2022/12/03 08:35:13;;;;;;;14.87;10.57;;;;;;;;;;5047181;28;20234;-72
2022/12/03 08:37:41;;;;;;;15.17;10.87;;;;;;;;;;5044992;28;20196;-73
2022/12/03 08:40:23;;;;;;;15.87;11.23;;;;;;;;;;5047346;28;20200;-71
2022/12/03 08:42:50;;;;;;;17.03;10.93;;;;;;;;;;5043190;28;20223;-70
2022/12/03 08:45:33;;;;;;;18.03;12.30;;;;;;;;;;5046108;28;20199;-72
2022/12/03 08:48:03;;;;;;;16.17;11.13;;;;;;;;;;5046865;28;20325;-72
2022/12/03 08:50:30;;;;;;;18.30;11.70;;;;;;;;;;5047617;28;20218;-72
2022/12/03 08:52:59;;;;;;;15.33;10.73;;;;;;;;;;5046986;28;20211;-71
2022/12/03 08:55:34;;;;;;;17.00;11.43;;;;;;;;;;5046936;28;20228;-72
2022/12/03 08:58:06;;;;;;;16.17;10.93;;;;;;;;;;5048059;28;20206;-71
2022/12/03 09:00:33;;;;;;;16.80;11.33;;;;;;;;;;5048908;28;20207;-71
2022/12/03 09:03:01;;;;;;;17.97;11.43;;;;;;;;;;5039655;28;20206;-72
2022/12/03 09:05:31;;;;;;;17.37;11.97;;;;;;;;;;5048822;28;20203;-71
2022/12/03 09:07:58;;;;;;;17.10;12.30;;;;;;;;;;5045653;28;20211;-70
2022/12/03 09:10:25;;;;;;;17.13;12.03;;;;;;;;;;5046234;28;20203;-71
2022/12/03 09:12:53;;;;;;;14.60;10.17;;;;;;;;;;5047759;28;20198;-74
2022/12/03 09:15:20;;;;;;;16.27;10.90;;;;;;;;;;5048050;28;20219;-73
2022/12/03 09:17:48;;;;;;;13.93;10.00;;;;;;;;;;5048200;28;20214;-73
2022/12/03 09:20:15;;;;;;;15.93;10.67;;;;;;;;;;5048502;28;20208;-72
2022/12/03 09:22:42;;;;;;;16.63;11.20;;;;;;;;;;5049231;28;20204;-73
2022/12/03 09:25:10;;;;;;;18.30;11.20;;;;;;;;;;5048331;28;20198;-73
2022/12/03 09:27:37;;;;;;;17.17;10.87;;;;;;;;;;5052986;28;20239;-71
2022/12/03 09:30:06;;;;;;;14.47;9.80;;;;;;;;;;5044486;28;20220;-72
2022/12/03 09:32:33;;;;;;;15.50;11.30;;;;;;;;;;5048173;28;20210;-72
2022/12/03 09:35:00;;;;;;;15.10;10.73;;;;;;;;;;5050778;28;20223;-71
2022/12/03 09:37:27;;;;;;;15.33;9.73;;;;;;;;;;5048223;28;20204;-71
2022/12/03 09:39:54;;;;;;;15.37;10.27;;;;;;;;;;5050191;28;20200;-71
2022/12/03 09:42:22;;;;;;;14.20;10.17;;;;;;;;;;5045369;28;20210;-71
2022/12/03 09:44:49;;;;;;;14.77;10.37;;;;;;;;;;5048056;28;20200;-68
2022/12/03 09:47:18;;;;;;;16.57;10.83;;;;;;;;;;5048047;28;20207;-68
2022/12/03 09:49:45;;;;;;;15.63;10.30;;;;;;;;;;5045742;28;20203;-67
2022/12/03 09:52:14;;;;;;;14.83;10.13;;;;;;;;;;5048703;28;20199;-68
2022/12/03 09:54:41;;;;;;;18.23;10.67;;;;;;;;;;5048271;28;20234;-71
2022/12/03 09:57:12;;;;;;;17.60;10.77;;;;;;;;;;5044287;28;20199;-70
2022/12/03 09:59:39;;;;;;;16.03;10.50;;;;;;;;;;5045307;28;20200;-70
2022/12/03 10:02:14;;;;;;;14.20;9.97;;;;;;;;;;5048647;28;20200;-70
2022/12/03 10:04:43;;;;;;;15.23;10.17;;;;;;;;;;5046202;28;20214;-69
2022/12/03 10:07:10;;;;;;;14.77;9.77;;;;;;;;;;5043581;28;20204;-70
2022/12/03 10:09:37;;;;;;;14.67;10.23;;;;;;;;;;5050271;28;20211;-71
2022/12/03 10:12:05;;;;;;;15.50;9.97;;;;;;;;;;5049632;28;20195;-71
2022/12/03 10:14:32;;;;;;;16.03;10.07;;;;;;;;;;5052761;28;20223;-71
2022/12/03 10:16:59;;;;;;;15.60;11.40;;;;;;;;;;5050895;28;20196;-71
2022/12/03 10:19:28;;;;;;;16.83;11.07;;;;;;;;;;5040866;28;20200;-70
2022/12/03 10:21:56;;;;;;;15.23;10.30;;;;;;;;;;5048921;28;20219;-71
2022/12/03 10:24:27;;;;;;;16.80;11.27;;;;;;;;;;5052194;28;20202;-71
2022/12/03 10:26:55;;;;;;;14.90;10.00;;;;;;;;;;5049014;28;20292;-71
2022/12/03 10:29:23;;;;;;;14.00;10.10;;;;;;;;;;5042928;28;20207;-70
2022/12/03 10:31:55;;;;;;;14.23;10.23;;;;;;;;;;5048473;28;20738;-71
2022/12/03 10:34:29;;;;;;;15.43;10.47;;;;;;;;;;5045427;28;20199;-71
2022/12/03 10:37:14;;;;;;;14.50;9.63;;;;;;;;;;5046402;28;20203;-71
2022/12/03 10:40:04;;;;;;;13.93;10.07;;;;;;;;;;5040412;28;20277;-72
2022/12/03 10:42:32;;;;;;;15.57;11.23;;;;;;;;;;5038726;28;20265;-72
2022/12/03 10:45:23;;;;;;;12.93;10.07;;;;;;;;;;5046594;28;20206;-72
2022/12/03 10:48:03;;;;;;;14.60;9.33;;;;;;;;;;5039562;28;20465;-72
2022/12/03 10:50:30;;;;;;;13.97;10.20;;;;;;;;;;5049898;28;20249;-71
2022/12/03 10:52:59;;;;;;;13.20;9.37;;;;;;;;;;5045704;28;20203;-72
2022/12/03 10:55:26;;;;;;;15.57;10.97;;;;;;;;;;5046912;28;20223;-72
2022/12/03 10:57:53;;;;;;;16.37;10.33;;;;;;;;;;5047093;28;20219;-72
2022/12/03 11:00:21;;;;;;;16.70;11.40;;;;;;;;;;5047611;28;20205;-71
2022/12/03 11:02:48;;;;;;;18.90;11.63;;;;;;;;;;5047988;28;20277;-71
2022/12/03 11:05:16;;;;;;;17.00;11.57;;;;;;;;;;5048132;28;20192;-70
2022/12/03 11:07:44;;;;;;;14.70;10.67;;;;;;;;;;5045183;28;20208;-70
2022/12/03 11:10:15;;;;;;;13.70;9.23;;;;;;;;;;5051371;28;20266;-71
2022/12/03 11:12:42;;;;;;;13.90;9.90;;;;;;;;;;5049581;28;20203;-70
2022/12/03 11:15:15;;;;;;;14.00;9.87;;;;;;;;;;5042570;28;20215;-71
2022/12/03 11:17:46;;;;;;;14.40;9.87;;;;;;;;;;5044266;28;20279;-71
2022/12/03 11:20:39;;;;;;;15.40;10.90;;;;;;;;;;5045871;28;20203;-71
2022/12/03 11:23:11;;;;;;;15.70;10.47;;;;;;;;;;5049944;28;20197;-72
2022/12/03 11:25:56;;;;;;;14.33;10.53;;;;;;;;;;5047499;28;20195;-72
2022/12/03 11:28:34;;;;;;;15.80;10.00;;;;;;;;;;5050231;28;20242;-72
2022/12/03 11:31:11;;;;;;;14.50;9.93;;;;;;;;;;5049583;28;20203;-71
2022/12/03 11:33:39;;;;;;;16.47;11.13;;;;;;;;;;5044876;28;20211;-71
2022/12/03 11:36:10;;;;;;;16.67;11.60;;;;;;;;;;5047027;28;20220;-70
2022/12/03 11:38:44;;;;;;;16.37;11.17;;;;;;;;;;5051094;28;20203;-71
2022/12/03 11:41:12;;;;;;;19.33;12.30;;;;;;;;;;5045702;28;20237;-72
2022/12/03 11:44:12;;;;;;;17.67;12.00;;;;;;;;;;5048531;28;20200;-72
2022/12/03 11:46:43;;;;;;;18.60;11.37;;;;;;;;;;4986559;28;20208;-72
2022/12/03 11:49:23;;;;;;;18.20;11.60;;;;;;;;;;4980433;28;20212;-70
2022/12/03 11:51:50;;;;;;;18.53;11.93;;;;;;;;;;5019773;28;20203;-70
2022/12/03 11:54:18;;;;;;;17.03;11.40;;;;;;;;;;5049838;28;20226;-70
2022/12/03 11:56:46;;;;;;;16.13;10.70;;;;;;;;;;5046359;28;20860;-69
2022/12/03 11:59:13;;;;;;;16.13;11.20;;;;;;;;;;5042258;28;20192;-71
2022/12/03 12:01:42;;;;;;;17.37;11.30;;;;;;;;;;5042751;28;20196;-71
2022/12/03 12:04:26;;;;;;;17.03;11.63;;;;;;;;;;5046235;28;20199;-70
2022/12/03 12:06:54;;;;;;;17.97;11.47;;;;;;;;;;5046285;28;20217;-71
2022/12/03 12:09:36;;;;;;;17.20;11.70;;;;;;;;;;5046736;28;20211;-71
2022/12/03 12:12:18;;;;;;;18.93;11.93;;;;;;;;;;5046776;28;20208;-71
2022/12/03 12:14:45;;;;;;;18.57;12.37;;;;;;;;;;5045771;28;20200;-71
2022/12/03 12:17:27;;;;;;;18.90;12.67;;;;;;;;;;5044154;28;20206;-72
2022/12/03 12:20:10;;;;;;;19.87;12.87;;;;;;;;;;5047641;28;20200;-70
2022/12/03 12:22:38;;;;;;;18.70;12.27;;;;;;;;;;5047976;28;20208;-71
2022/12/03 12:25:08;;;;;;;21.07;12.13;;;;;;;;;;5047781;28;20207;-72
2022/12/03 12:27:38;;;;;;;18.33;11.93;;;;;;;;;;5046364;28;20308;-73
2022/12/03 12:30:06;;;;;;;18.70;12.17;;;;;;;;;;5045642;28;20199;-70
2022/12/03 12:32:34;;;;;;;18.30;11.93;;;;;;;;;;5045345;28;20203;-71
2022/12/03 12:35:04;;;;;;;17.13;11.73;;;;;;;;;;5051436;28;20207;-70
2022/12/03 12:37:35;;;;;;;20.00;12.37;;;;;;;;;;5043258;28;20203;-71
2022/12/03 12:40:07;;;;;;;18.17;12.20;;;;;;;;;;5047706;28;20214;-72
2022/12/03 12:42:35;;;;;;;18.00;11.70;;;;;;;;;;5045631;28;20203;-70
2022/12/03 12:45:13;;;;;;;17.53;11.43;;;;;;;;;;5038111;28;20290;-70
2022/12/03 12:47:41;;;;;;;17.80;11.87;;;;;;;;;;5044314;28;20284;-70
2022/12/03 12:50:09;;;;;;;16.20;11.33;;;;;;;;;;5046508;28;21455;-70
2022/12/03 12:52:38;;;;;;;16.73;11.87;;;;;;;;;;5047830;28;20214;-70
2022/12/03 12:55:11;;;;;;;17.53;12.37;;;;;;;;;;5051294;28;20207;-70
2022/12/03 12:57:38;;;;;;;16.63;11.37;;;;;;;;;;5042908;28;20200;-69
2022/12/03 13:00:06;;;;;;;18.57;12.77;;;;;;;;;;5050982;28;20203;-70
2022/12/03 13:02:42;;;;;;;19.33;12.37;;;;;;;;;;5053883;28;20227;-70
2022/12/03 13:05:11;;;;;;;18.57;13.27;;;;;;;;;;5054236;28;20199;-70
2022/12/03 13:07:38;;;;;;;18.20;12.53;;;;;;;;;;5051516;28;20219;-70
2022/12/03 13:10:20;;;;;;;18.70;11.63;;;;;;;;;;5052755;28;20204;-70
2022/12/03 13:12:47;;;;;;;17.93;12.33;;;;;;;;;;5053440;28;20215;-70
2022/12/03 13:15:31;;;;;;;16.83;11.50;;;;;;;;;;5051511;28;20203;-70
2022/12/03 13:17:58;;;;;;;16.40;11.90;;;;;;;;;;5052468;28;20199;-69
2022/12/03 13:20:26;;;;;;;16.87;11.20;;;;;;;;;;5054051;28;20200;-70
2022/12/03 13:22:53;;;;;;;25.53;16.67;;;;;;;;;;5053690;28;20200;-70
2022/12/03 13:25:34;;;;;;;18.97;13.23;;;;;;;;;;5053665;28;20204;-70
2022/12/03 13:28:02;;;;;;;19.07;13.00;;;;;;;;;;5052385;28;20227;-69
2022/12/03 13:30:29;;;;;;;21.70;14.20;;;;;;;;;;5047614;28;20215;-70
2022/12/03 13:33:00;;;;;;;17.23;11.37;;;;;;;;;;5049672;28;20221;-71
2022/12/03 13:35:30;;;;;;;17.00;11.97;;;;;;;;;;5048063;28;20223;-70
2022/12/03 13:37:58;;;;;;;15.47;11.27;;;;;;;;;;5046081;28;20196;-70
2022/12/03 13:40:29;;;;;;;16.73;11.70;;;;;;;;;;5040084;28;20195;-70
2022/12/03 13:42:55;;;;;;;15.30;10.73;;;;;;;;;;5047496;28;20207;-70
2022/12/03 13:45:30;;;;;;;15.87;11.57;;;;;;;;;;5047076;28;20203;-70
2022/12/03 13:47:59;;;;;;;17.67;12.10;;;;;;;;;;5050498;28;20203;-69
2022/12/03 13:50:32;;;;;;;15.73;11.87;;;;;;;;;;5049723;28;20196;-69
2022/12/03 13:53:00;;;;;;;16.27;11.07;;;;;;;;;;5048822;28;20203;-69
2022/12/03 13:55:31;;;;;;;16.80;11.47;;;;;;;;;;5049626;28;20207;-70
2022/12/03 13:57:58;;;;;;;16.20;11.13;;;;;;;;;;5054739;28;20627;-71
2022/12/03 14:00:25;;;;;;;16.47;11.03;;;;;;;;;;5048783;28;20204;-70
2022/12/03 14:02:52;;;;;;;16.33;10.70;;;;;;;;;;5052497;28;20203;-67
2022/12/03 14:05:20;;;;;;;19.93;13.53;;;;;;;;;;5052521;28;20206;-70
2022/12/03 14:07:47;;;;;;;16.73;12.17;;;;;;;;;;5055421;28;20204;-70
2022/12/03 14:10:15;;;;;;;21.37;13.80;;;;;;;;;;5050630;28;20213;-70
2022/12/03 14:12:43;;;;;;;18.03;12.20;;;;;;;;;;5051858;28;20286;-69
2022/12/03 14:15:11;;;;;;;14.87;10.43;;;;;;;;;;5051013;28;20512;-70
2022/12/03 14:17:38;;;;;;;13.63;10.40;;;;;;;;;;5045059;28;20228;-70
2022/12/03 14:20:06;;;;;;;13.50;10.07;;;;;;;;;;5049341;28;20318;-70
2022/12/03 14:22:36;;;;;;;14.63;10.67;;;;;;;;;;5052236;28;20226;-69
2022/12/03 14:25:04;;;;;;;15.13;10.83;;;;;;;;;;5041611;28;20219;-70
2022/12/03 14:27:31;;;;;;;15.47;10.57;;;;;;;;;;5047085;28;20250;-71
2022/12/03 14:29:59;;;;;;;14.13;11.00;;;;;;;;;;5048586;28;20211;-71
2022/12/03 14:32:26;;;;;;;15.77;10.67;;;;;;;;;;5046074;28;20196;-69
2022/12/03 14:34:53;;;;;;;13.83;10.87;;;;;;;;;;5035210;28;20207;-71
2022/12/03 14:37:20;;;;;;;14.67;9.97;;;;;;;;;;5043806;28;20222;-71
2022/12/03 14:39:48;;;;;;;12.83;10.27;;;;;;;;;;5037986;28;20206;-70
2022/12/03 14:42:15;;;;;;;15.10;10.70;;;;;;;;;;5052241;28;20207;-70
2022/12/03 14:44:43;;;;;;;13.67;10.10;;;;;;;;;;5052845;28;20195;-70
2022/12/03 14:47:12;;;;;;;15.57;11.10;;;;;;;;;;5047549;28;20203;-71
2022/12/03 14:49:39;;;;;;;15.23;11.40;;;;;;;;;;5049848;28;20203;-71
2022/12/03 14:52:06;;;;;;;15.60;11.23;;;;;;;;;;5045615;28;20221;-71
2022/12/03 14:54:33;;;;;;;15.30;11.03;;;;;;;;;;5048251;28;20203;-71